Nippon Maru — 3FDA7 — position and weather

sailwx.info

Track history (hours):
 
Tides and Currents Weather Stations Pressure Air Temp Water Temp Dewpoint Dewpoint Depression Visibility Wind Speed Wind Dir Waves Ship Positions

Nippon Maru

Last reported at 2018-Jun-21 13:15 UTC. Time now 2018-Jun-21 18:02 UTC.
Position N 36°17' E 014°59'.

Length 190 m; draft 11.2 m.

Type: Cargo ship. MMSI: 353814000.

Date/timePositionNaut miles runAvg speedWind from/ knotsBaromVisibWave heightAir tempDewpointWater temp
2018-Jun-21 13:15N 36°17' E 014°59'412.6
2018-Jun-21 12:58N 36°17' E 014°54'711.8
2018-Jun-21 12:24N 36°20' E 014°47'512.4
2018-Jun-21 12:00N 36°20' E 014°41'1112.6
2018-Jun-21 11:09N 36°20' E 014°27'312.8
2018-Jun-21 10:53N 36°20' E 014°23'612.9
2018-Jun-21 10:26N 36°20' E 014°16'612.7
2018-Jun-21 09:59N 36°20' E 014°09'612.7
2018-Jun-21 09:30N 36°21' E 014°01'1012.9
2018-Jun-21 08:45N 36°25' E 013°50'313.2
2018-Jun-21 08:30N 36°26' E 013°46'713.2
2018-Jun-21 07:58N 36°29' E 013°38'713.1
2018-Jun-21 07:25N 36°32' E 013°30'712.9
2018-Jun-21 06:54N 36°35' E 013°22'512.8
2018-Jun-21 06:29N 36°37' E 013°17'612.8
2018-Jun-21 06:00N 36°39' E 013°09'713.4
2018-Jun-21 05:30N 36°42' E 013°02'714.2
2018-Jun-21 05:00N 36°45' E 012°54'60211.9
2018-Jun-19 02:33N 36°39' E 000°23'112.5
2018-Jun-19 02:26N 36°39' E 000°21'612.4
2018-Jun-19 01:56N 36°38' E 000°13'3012.3
2018-Jun-18 23:30N 36°34' W 000°23'912.4
2018-Jun-18 22:46N 36°33' W 000°35'412.5
2018-Jun-18 22:25N 36°32' W 000°40'1212.4
2018-Jun-18 21:27N 36°30' W 000°55'912.4
2018-Jun-18 20:43N 36°29' W 001°06'312.5
2018-Jun-18 20:30N 36°29' W 001°10'612.3
2018-Jun-18 19:59N 36°28' W 001°17'612.2
2018-Jun-18 19:28N 36°27' W 001°25'612.6
2018-Jun-18 18:59N 36°26' W 001°32'712.8
2018-Jun-18 18:26N 36°25' W 001°41'16313.1
2018-Jun-18 06:00N 36°02' W 005°01'713.8
2018-Jun-18 05:30N 36°01' W 005°09'714.4
2018-Jun-18 05:00N 35°59' W 005°18'713.5
2018-Jun-18 04:31N 35°57' W 005°26'911.5
2018-Jun-18 03:43N 35°55' W 005°37'13 9.4
2018-Jun-18 02:19N 35°55' W 005°53'310.2
2018-Jun-18 01:59N 35°55' W 005°57'610.7
2018-Jun-18 01:25N 35°55' W 006°05'14111.9
2018-Jun-17 13:33N 36°13' W 008°58'010.2
2018-Jun-17 13:31N 36°13' W 008°58'812.2
2018-Jun-17 12:54N 36°15' W 009°08'612.0
2018-Jun-17 12:23N 36°16' W 009°15'512.0
2018-Jun-17 12:00N 36°17' W 009°20'611.9
2018-Jun-17 11:29N 36°18' W 009°28'1011.8
2018-Jun-17 10:36N 36°20' W 009°41'211.7
2018-Jun-17 10:24N 36°21' W 009°43'511.5
2018-Jun-17 09:59N 36°22' W 009°49'711.4
2018-Jun-17 09:24N 36°24' W 009°57'7510.7
2018-Jun-17 02:25N 36°36' W 011°29'6711.3
2018-Jun-16 20:30N 36°46' W 012°51'912.1
2018-Jun-16 19:43N 36°48' W 013°03'511.8
2018-Jun-16 19:17N 36°49' W 013°09'311.7
2018-Jun-16 19:00N 36°49' W 013°13'612.0
2018-Jun-16 18:30N 36°50' W 013°21'1212.0
2018-Jun-16 17:33N 36°52' W 013°35'25812.4
2018-Jun-15 20:47N 37°33' W 018°55'2112.5
2018-Jun-15 19:05N 37°36' W 019°21'2612.4
2018-Jun-15 16:57N 37°40' W 019°54'511.8
2018-Jun-15 16:30N 37°41' W 020°01'611.8
2018-Jun-15 16:00N 37°42' W 020°08'912.1
2018-Jun-15 15:14N 37°42' W 020°20'5812.3
2018-Jun-15 10:34N 37°45' W 021°33'4512.3
2018-Jun-15 06:55N 37°49' W 022°29'512.6
2018-Jun-15 06:29N 37°49' W 022°36'3112.5
2018-Jun-15 03:59N 37°53' W 023°15'712.7
2018-Jun-15 03:25N 37°55' W 023°24'512.9
2018-Jun-15 03:00N 37°55' W 023°31'612.9
2018-Jun-15 02:30N 37°56' W 023°39'612.6
2018-Jun-15 02:00N 37°57' W 023°47'612.7
2018-Jun-15 01:30N 37°58' W 023°55'612.6
2018-Jun-15 01:00N 37°59' W 024°03'612.6
2018-Jun-15 00:30N 38°00' W 024°11'612.5
2018-Jun-15 00:00N 38°01' W 024°19'613.0
2018-Jun-14 23:30N 38°02' W 024°27'612.9
2018-Jun-14 23:01N 38°03' W 024°35'712.9
2018-Jun-14 22:30N 38°04' W 024°43'713.1
2018-Jun-14 22:00N 38°05' W 024°51'713.1
2018-Jun-14 21:30N 38°06' W 024°59'612.9
2018-Jun-14 21:00N 38°06' W 025°08'612.6
2018-Jun-14 20:30N 38°07' W 025°16'612.6
2018-Jun-14 20:00N 38°08' W 025°23'612.7
2018-Jun-14 19:30N 38°09' W 025°31'612.5
2018-Jun-14 19:01N 38°09' W 025°39'612.2
2018-Jun-14 18:30N 38°09' W 025°47'612.8
2018-Jun-14 18:00N 38°08' W 025°55'713.6
2018-Jun-14 17:30N 38°07' W 026°04'713.6
2018-Jun-14 17:00N 38°06' W 026°12'612.8
2018-Jun-14 16:30N 38°06' W 026°21'612.2
2018-Jun-14 16:00N 38°05' W 026°28'612.7
2018-Jun-14 15:30N 38°05' W 026°36'612.5
2018-Jun-14 15:00N 38°04' W 026°44'612.5
2018-Jun-14 14:30N 38°04' W 026°52'611.9
2018-Jun-14 14:00N 38°03' W 026°60'612.1
2018-Jun-14 13:30N 38°03' W 027°07'612.4
2018-Jun-14 13:00N 38°02' W 027°15'612.3
2018-Jun-14 12:30N 38°02' W 027°23'612.5
2018-Jun-14 12:00N 38°01' W 027°31'612.9
2018-Jun-14 11:30N 38°01' W 027°39'612.4
2018-Jun-14 11:00N 38°01' W 027°47'612.0
2018-Jun-14 10:30N 38°01' W 027°55'611.9
2018-Jun-14 10:00N 38°01' W 028°02'712.8
2018-Jun-14 09:30N 38°02' W 028°10'612.6
2018-Jun-14 09:00N 38°02' W 028°18'612.3
2018-Jun-14 08:30N 38°02' W 028°26'612.5
2018-Jun-14 08:00N 38°03' W 028°34'612.7
2018-Jun-14 07:30N 38°03' W 028°42'612.8
2018-Jun-14 07:01N 38°03' W 028°50'612.3
2018-Jun-14 06:30N 38°04' W 028°58'612.6
2018-Jun-14 06:00N 38°04' W 029°06'612.5
2018-Jun-14 05:30N 38°04' W 029°14'612.4
2018-Jun-14 05:00N 38°05' W 029°22'612.5
2018-Jun-14 04:30N 38°05' W 029°30'613.0
2018-Jun-14 04:01N 38°05' W 029°38'713.2
2018-Jun-14 03:30N 38°06' W 029°46'713.3
2018-Jun-14 03:00N 38°06' W 029°55'713.4
2018-Jun-14 02:31N 38°06' W 030°03'612.9
2018-Jun-14 02:00N 38°06' W 030°12'612.8
2018-Jun-14 01:30N 38°05' W 030°20'612.8
2018-Jun-14 01:00N 38°05' W 030°28'612.9
2018-Jun-14 00:30N 38°05' W 030°36'713.2
2018-Jun-14 00:00N 38°04' W 030°44'612.8
2018-Jun-13 23:30N 38°04' W 030°53'612.8
2018-Jun-13 23:00N 38°04' W 031°01'612.8
2018-Jun-13 22:31N 38°03' W 031°09'712.8
2018-Jun-13 21:58N 38°03' W 031°18'612.8
2018-Jun-13 21:30N 38°03' W 031°25'712.5
2018-Jun-13 20:58N 38°02' W 031°34'812.7
2018-Jun-13 20:20N 38°02' W 031°44'612.4
2018-Jun-13 19:49N 38°01' W 031°52'512.6
2018-Jun-13 19:27N 38°01' W 031°58'712.3
2018-Jun-13 18:52N 38°01' W 032°07'512.3
2018-Jun-13 18:30N 38°00' W 032°12'  
Track history (hours):
 
Tides and Currents Weather Stations Pressure Air Temp Water Temp Dewpoint Dewpoint Depression Visibility Wind Speed Wind Dir Waves Ship Positions

Nippon Maru

Last reported at 2018-Jun-21 13:15 UTC. Time now 2018-Jun-21 18:02 UTC.
Position N 36°17' E 014°59'.

Length 190 m; draft 11.2 m.

Type: Cargo ship. MMSI: 353814000.

Date/timePositionNaut miles runAvg speedWind from/ knotsBaromVisibWave heightAir tempDewpointWater temp
2018-Jun-21 13:15N 36°17' E 014°59'412.6
2018-Jun-21 12:58N 36°17' E 014°54'711.8
2018-Jun-21 12:24N 36°20' E 014°47'512.4
2018-Jun-21 12:00N 36°20' E 014°41'1112.6
2018-Jun-21 11:09N 36°20' E 014°27'312.8
2018-Jun-21 10:53N 36°20' E 014°23'612.9
2018-Jun-21 10:26N 36°20' E 014°16'612.7
2018-Jun-21 09:59N 36°20' E 014°09'612.7
2018-Jun-21 09:30N 36°21' E 014°01'1012.9
2018-Jun-21 08:45N 36°25' E 013°50'313.2
2018-Jun-21 08:30N 36°26' E 013°46'713.2
2018-Jun-21 07:58N 36°29' E 013°38'713.1
2018-Jun-21 07:25N 36°32' E 013°30'712.9
2018-Jun-21 06:54N 36°35' E 013°22'512.8
2018-Jun-21 06:29N 36°37' E 013°17'612.8
2018-Jun-21 06:00N 36°39' E 013°09'713.4
2018-Jun-21 05:30N 36°42' E 013°02'714.2
2018-Jun-21 05:00N 36°45' E 012°54'60211.9
2018-Jun-19 02:33N 36°39' E 000°23'112.5
2018-Jun-19 02:26N 36°39' E 000°21'612.4
2018-Jun-19 01:56N 36°38' E 000°13'3012.3
2018-Jun-18 23:30N 36°34' W 000°23'912.4
2018-Jun-18 22:46N 36°33' W 000°35'412.5
2018-Jun-18 22:25N 36°32' W 000°40'1212.4
2018-Jun-18 21:27N 36°30' W 000°55'912.4
2018-Jun-18 20:43N 36°29' W 001°06'312.5
2018-Jun-18 20:30N 36°29' W 001°10'612.3
2018-Jun-18 19:59N 36°28' W 001°17'612.2
2018-Jun-18 19:28N 36°27' W 001°25'612.6
2018-Jun-18 18:59N 36°26' W 001°32'712.8
2018-Jun-18 18:26N 36°25' W 001°41'16313.1
2018-Jun-18 06:00N 36°02' W 005°01'713.8
2018-Jun-18 05:30N 36°01' W 005°09'714.4
2018-Jun-18 05:00N 35°59' W 005°18'713.5
2018-Jun-18 04:31N 35°57' W 005°26'911.5
2018-Jun-18 03:43N 35°55' W 005°37'13 9.4
2018-Jun-18 02:19N 35°55' W 005°53'310.2
2018-Jun-18 01:59N 35°55' W 005°57'610.7
2018-Jun-18 01:25N 35°55' W 006°05'14111.9
2018-Jun-17 13:33N 36°13' W 008°58'010.2
2018-Jun-17 13:31N 36°13' W 008°58'812.2
2018-Jun-17 12:54N 36°15' W 009°08'612.0
2018-Jun-17 12:23N 36°16' W 009°15'512.0
2018-Jun-17 12:00N 36°17' W 009°20'611.9
2018-Jun-17 11:29N 36°18' W 009°28'1011.8
2018-Jun-17 10:36N 36°20' W 009°41'211.7
2018-Jun-17 10:24N 36°21' W 009°43'511.5
2018-Jun-17 09:59N 36°22' W 009°49'711.4
2018-Jun-17 09:24N 36°24' W 009°57'7510.7
2018-Jun-17 02:25N 36°36' W 011°29'6711.3
2018-Jun-16 20:30N 36°46' W 012°51'912.1
2018-Jun-16 19:43N 36°48' W 013°03'511.8
2018-Jun-16 19:17N 36°49' W 013°09'311.7
2018-Jun-16 19:00N 36°49' W 013°13'612.0
2018-Jun-16 18:30N 36°50' W 013°21'1212.0
2018-Jun-16 17:33N 36°52' W 013°35'25812.4
2018-Jun-15 20:47N 37°33' W 018°55'2112.5
2018-Jun-15 19:05N 37°36' W 019°21'2612.4
2018-Jun-15 16:57N 37°40' W 019°54'511.8
2018-Jun-15 16:30N 37°41' W 020°01'611.8
2018-Jun-15 16:00N 37°42' W 020°08'912.1
2018-Jun-15 15:14N 37°42' W 020°20'5812.3
2018-Jun-15 10:34N 37°45' W 021°33'4512.3
2018-Jun-15 06:55N 37°49' W 022°29'512.6
2018-Jun-15 06:29N 37°49' W 022°36'3112.5
2018-Jun-15 03:59N 37°53' W 023°15'712.7
2018-Jun-15 03:25N 37°55' W 023°24'512.9
2018-Jun-15 03:00N 37°55' W 023°31'612.9
2018-Jun-15 02:30N 37°56' W 023°39'612.6
2018-Jun-15 02:00N 37°57' W 023°47'612.7
2018-Jun-15 01:30N 37°58' W 023°55'612.6
2018-Jun-15 01:00N 37°59' W 024°03'612.6
2018-Jun-15 00:30N 38°00' W 024°11'612.5
2018-Jun-15 00:00N 38°01' W 024°19'613.0
2018-Jun-14 23:30N 38°02' W 024°27'612.9
2018-Jun-14 23:01N 38°03' W 024°35'712.9
2018-Jun-14 22:30N 38°04' W 024°43'713.1
2018-Jun-14 22:00N 38°05' W 024°51'713.1
2018-Jun-14 21:30N 38°06' W 024°59'612.9
2018-Jun-14 21:00N 38°06' W 025°08'612.6
2018-Jun-14 20:30N 38°07' W 025°16'612.6
2018-Jun-14 20:00N 38°08' W 025°23'612.7
2018-Jun-14 19:30N 38°09' W 025°31'612.5
2018-Jun-14 19:01N 38°09' W 025°39'612.2
2018-Jun-14 18:30N 38°09' W 025°47'612.8
2018-Jun-14 18:00N 38°08' W 025°55'713.6
2018-Jun-14 17:30N 38°07' W 026°04'713.6
2018-Jun-14 17:00N 38°06' W 026°12'612.8
2018-Jun-14 16:30N 38°06' W 026°21'612.2
2018-Jun-14 16:00N 38°05' W 026°28'612.7
2018-Jun-14 15:30N 38°05' W 026°36'612.5
2018-Jun-14 15:00N 38°04' W 026°44'612.5
2018-Jun-14 14:30N 38°04' W 026°52'611.9
2018-Jun-14 14:00N 38°03' W 026°60'612.1
2018-Jun-14 13:30N 38°03' W 027°07'612.4
2018-Jun-14 13:00N 38°02' W 027°15'612.3
2018-Jun-14 12:30N 38°02' W 027°23'612.5
2018-Jun-14 12:00N 38°01' W 027°31'612.9
2018-Jun-14 11:30N 38°01' W 027°39'612.4
2018-Jun-14 11:00N 38°01' W 027°47'612.0
2018-Jun-14 10:30N 38°01' W 027°55'611.9
2018-Jun-14 10:00N 38°01' W 028°02'712.8
2018-Jun-14 09:30N 38°02' W 028°10'612.6
2018-Jun-14 09:00N 38°02' W 028°18'612.3
2018-Jun-14 08:30N 38°02' W 028°26'612.5
2018-Jun-14 08:00N 38°03' W 028°34'612.7
2018-Jun-14 07:30N 38°03' W 028°42'612.8
2018-Jun-14 07:01N 38°03' W 028°50'612.3
2018-Jun-14 06:30N 38°04' W 028°58'612.6
2018-Jun-14 06:00N 38°04' W 029°06'612.5
2018-Jun-14 05:30N 38°04' W 029°14'612.4
2018-Jun-14 05:00N 38°05' W 029°22'612.5
2018-Jun-14 04:30N 38°05' W 029°30'613.0
2018-Jun-14 04:01N 38°05' W 029°38'713.2
2018-Jun-14 03:30N 38°06' W 029°46'713.3
2018-Jun-14 03:00N 38°06' W 029°55'713.4
2018-Jun-14 02:31N 38°06' W 030°03'612.9
2018-Jun-14 02:00N 38°06' W 030°12'612.8
2018-Jun-14 01:30N 38°05' W 030°20'612.8
2018-Jun-14 01:00N 38°05' W 030°28'612.9
2018-Jun-14 00:30N 38°05' W 030°36'713.2
2018-Jun-14 00:00N 38°04' W 030°44'612.8
2018-Jun-13 23:30N 38°04' W 030°53'612.8
2018-Jun-13 23:00N 38°04' W 031°01'612.8
2018-Jun-13 22:31N 38°03' W 031°09'712.8
2018-Jun-13 21:58N 38°03' W 031°18'612.8
2018-Jun-13 21:30N 38°03' W 031°25'712.5
2018-Jun-13 20:58N 38°02' W 031°34'812.7
2018-Jun-13 20:20N 38°02' W 031°44'612.4
2018-Jun-13 19:49N 38°01' W 031°52'512.6
2018-Jun-13 19:27N 38°01' W 031°58'712.3
2018-Jun-13 18:52N 38°01' W 032°07'512.3
2018-Jun-13 18:30N 38°00' W 032°12'  

Dump ship's entire track history